createdAt,value
2017-10-09T00:01:21.225Z,10.77
2017-10-09T00:03:48.795Z,5.78
2017-10-09T00:06:15.095Z,7.15
2017-10-09T00:08:44.445Z,12.20
2017-10-09T00:11:10.742Z,6.78
2017-10-09T00:13:37.765Z,7.28
2017-10-09T00:16:04.086Z,8.30
2017-10-09T00:18:30.397Z,6.85
2017-10-09T00:20:56.714Z,6.55
2017-10-09T00:23:25.085Z,7.00
2017-10-09T00:25:51.426Z,7.85
2017-10-09T00:28:19.341Z,8.45
2017-10-09T00:30:45.661Z,8.15
2017-10-09T00:33:12.654Z,7.62
2017-10-09T00:35:38.951Z,9.80
2017-10-09T00:38:08.227Z,6.45
2017-10-09T00:40:34.528Z,11.15
2017-10-09T00:43:01.565Z,8.15
2017-10-09T00:45:27.861Z,9.05
2017-10-09T00:47:54.179Z,8.35
2017-10-09T00:50:20.477Z,7.03
2017-10-09T00:52:46.794Z,6.85
2017-10-09T00:55:13.874Z,7.97
2017-10-09T00:57:40.228Z,9.38
2017-10-09T01:00:07.264Z,10.10
2017-10-09T01:02:33.541Z,10.07
2017-10-09T01:04:59.849Z,7.97
2017-10-09T01:07:26.139Z,8.32
2017-10-09T01:09:53.811Z,8.05
2017-10-09T01:12:20.174Z,7.12
2017-10-09T01:14:50.019Z,9.45
2017-10-09T01:17:17.182Z,9.68
2017-10-09T01:19:43.524Z,9.60
2017-10-09T01:22:10.935Z,10.75
2017-10-09T01:24:38.468Z,9.75
2017-10-09T01:27:04.789Z,11.25
2017-10-09T01:29:31.853Z,7.82
2017-10-09T01:31:58.145Z,8.60
2017-10-09T01:34:24.437Z,10.20
2017-10-09T01:36:51.485Z,12.77
2017-10-09T01:39:18.525Z,9.73
2017-10-09T01:41:44.882Z,7.90
2017-10-09T01:44:12.765Z,11.55
2017-10-09T01:46:39.066Z,8.27
2017-10-09T01:49:05.345Z,8.73
2017-10-09T01:51:31.661Z,14.43
2017-10-09T01:53:57.963Z,8.85
2017-10-09T01:56:24.286Z,13.27
2017-10-09T01:58:50.642Z,9.10
2017-10-09T02:01:16.951Z,11.10
2017-10-09T02:03:43.252Z,7.62
2017-10-09T02:06:09.558Z,7.20
2017-10-09T02:08:35.903Z,8.68
2017-10-09T02:11:02.949Z,15.05
2017-10-09T02:13:29.308Z,12.10
2017-10-09T02:15:56.341Z,10.32
2017-10-09T02:18:22.662Z,14.30
2017-10-09T02:20:49.000Z,11.93
2017-10-09T02:23:15.391Z,8.77
2017-10-09T02:25:41.712Z,8.43
2017-10-09T02:28:08.032Z,9.75
2017-10-09T02:30:35.069Z,11.93
2017-10-09T02:33:01.370Z,12.13
2017-10-09T02:35:27.721Z,9.43
2017-10-09T02:37:54.026Z,9.48
2017-10-09T02:40:22.695Z,10.30
2017-10-09T02:42:48.997Z,8.55
2017-10-09T02:45:15.309Z,10.63
2017-10-09T02:47:41.606Z,8.70
2017-10-09T02:50:08.659Z,9.13
2017-10-09T02:52:34.982Z,9.57
2017-10-09T02:55:01.310Z,11.10
2017-10-09T02:57:27.621Z,10.85
2017-10-09T02:59:54.794Z,9.55
2017-10-09T03:02:21.847Z,7.70
2017-10-09T03:04:48.159Z,11.07
2017-10-09T03:07:14.500Z,11.00
2017-10-09T03:09:40.792Z,7.87
2017-10-09T03:12:07.061Z,11.38
2017-10-09T03:14:34.103Z,12.48
2017-10-09T03:17:00.434Z,11.68
2017-10-09T03:19:26.761Z,9.70
2017-10-09T03:21:53.983Z,12.15
2017-10-09T03:24:21.184Z,11.55
2017-10-09T03:27:03.128Z,9.73
2017-10-09T03:29:33.333Z,10.13
2017-10-09T03:32:00.371Z,8.30
2017-10-09T03:34:26.702Z,12.00
2017-10-09T03:36:53.756Z,12.20
2017-10-09T03:39:20.074Z,11.65
2017-10-09T03:41:47.122Z,8.70
2017-10-09T03:44:13.424Z,9.35
2017-10-09T03:46:39.689Z,15.02
2017-10-09T03:49:05.978Z,10.05
2017-10-09T03:51:35.284Z,10.95
2017-10-09T03:54:01.627Z,11.50
2017-10-09T03:56:27.938Z,12.50
2017-10-09T03:58:54.239Z,9.80
2017-10-09T04:01:20.890Z,8.88
2017-10-09T04:03:49.129Z,15.70
2017-10-09T04:08:47.781Z,13.95
2017-10-09T04:11:14.329Z,12.07
2017-10-09T04:13:41.490Z,11.80
2017-10-09T04:16:08.541Z,10.48
2017-10-09T04:18:35.567Z,11.50
2017-10-09T04:21:01.880Z,11.07
2017-10-09T04:23:28.897Z,10.93
2017-10-09T04:25:55.173Z,14.77
2017-10-09T04:28:22.207Z,8.02
2017-10-09T04:30:48.500Z,11.32
2017-10-09T04:33:14.819Z,8.95
2017-10-09T04:35:44.832Z,10.93
2017-10-09T04:38:11.162Z,9.82
2017-10-09T04:40:37.458Z,9.48
2017-10-09T04:43:03.753Z,16.85
2017-10-09T04:45:30.125Z,10.18
2017-10-09T04:47:57.126Z,8.65
2017-10-09T04:50:23.411Z,11.20
2017-10-09T04:52:49.750Z,9.88
2017-10-09T04:55:16.054Z,11.65
2017-10-09T04:57:42.337Z,11.98
2017-10-09T05:00:08.645Z,11.50
2017-10-09T05:02:34.936Z,10.95
2017-10-09T05:05:02.428Z,11.48
2017-10-09T05:07:29.566Z,9.85
2017-10-09T05:09:55.946Z,11.93
2017-10-09T05:14:54.570Z,9.88
2017-10-09T05:17:20.969Z,12.85
2017-10-09T05:19:47.272Z,16.10
2017-10-09T05:22:13.569Z,14.75
2017-10-09T05:24:39.894Z,12.77
2017-10-09T05:27:08.467Z,13.98
2017-10-09T05:29:34.796Z,13.05
2017-10-09T05:32:01.095Z,12.70
2017-10-09T05:34:28.133Z,10.30
2017-10-09T05:36:56.537Z,12.63
2017-10-09T05:39:22.852Z,14.23
2017-10-09T05:41:49.169Z,12.05
2017-10-09T05:44:16.225Z,14.05
2017-10-09T05:46:42.590Z,18.75
2017-10-09T05:49:09.705Z,10.35
2017-10-09T05:51:36.057Z,13.25
2017-10-09T05:54:02.345Z,15.45
2017-10-09T05:56:28.642Z,13.07
2017-10-09T05:58:54.929Z,15.68
2017-10-09T06:01:21.215Z,16.08
2017-10-09T06:03:48.265Z,16.92
2017-10-09T06:06:14.567Z,14.55
2017-10-09T06:08:40.845Z,15.35
2017-10-09T06:11:07.128Z,13.75
2017-10-09T06:13:33.544Z,16.25
2017-10-09T06:16:00.625Z,13.65
2017-10-09T06:18:26.930Z,13.82
2017-10-09T06:20:53.261Z,15.50
2017-10-09T06:23:20.353Z,12.18
2017-10-09T06:25:46.693Z,14.57
2017-10-09T06:28:13.716Z,12.20
2017-10-09T06:30:40.006Z,19.25
2017-10-09T06:33:06.501Z,12.68
2017-10-09T06:35:32.806Z,11.27
2017-10-09T06:37:59.880Z,11.77
2017-10-09T06:40:26.729Z,11.80
2017-10-09T06:42:53.590Z,15.23
2017-10-09T06:45:20.488Z,16.42
2017-10-09T06:47:46.634Z,17.40
2017-10-09T06:50:12.791Z,21.52
2017-10-09T06:52:38.923Z,17.48
2017-10-09T06:55:05.076Z,21.15
2017-10-09T06:57:31.224Z,17.17
2017-10-09T06:59:57.358Z,20.15
2017-10-09T07:02:23.678Z,18.98
2017-10-09T07:04:49.997Z,16.02
2017-10-09T07:07:16.287Z,15.30
2017-10-09T07:09:42.607Z,21.73
2017-10-09T07:12:08.884Z,19.25
2017-10-09T07:14:35.217Z,18.45
2017-10-09T07:17:01.528Z,24.10
2017-10-09T07:19:27.860Z,20.48
2017-10-09T07:21:54.906Z,16.83
2017-10-09T07:24:21.260Z,20.70
2017-10-09T07:26:47.589Z,15.65
2017-10-09T07:29:13.896Z,17.35
2017-10-09T07:31:39.999Z,16.30
2017-10-09T07:34:06.441Z,18.90
2017-10-09T07:36:32.529Z,22.05
2017-10-09T07:38:59.548Z,17.83
2017-10-09T07:41:26.587Z,16.92
2017-10-09T07:43:52.958Z,17.67
2017-10-09T07:46:19.270Z,19.45
2017-10-09T07:48:47.745Z,18.37
2017-10-09T07:51:13.849Z,20.45
2017-10-09T07:53:39.971Z,23.27
2017-10-09T07:56:06.081Z,19.67
2017-10-09T07:58:32.925Z,15.80
2017-10-09T08:00:59.029Z,23.60
2017-10-09T08:03:25.138Z,17.77
2017-10-09T08:05:51.249Z,13.55
2017-10-09T08:08:21.471Z,16.75
2017-10-09T08:10:47.597Z,19.25
2017-10-09T08:13:13.805Z,16.08
2017-10-09T08:15:39.978Z,17.55
2017-10-09T08:18:06.893Z,19.10
2017-10-09T08:20:32.991Z,16.52
2017-10-09T08:22:59.117Z,18.05
2017-10-09T08:25:25.234Z,13.75
2017-10-09T08:27:51.948Z,16.15
2017-10-09T08:30:21.101Z,15.07
2017-10-09T08:32:47.931Z,14.23
2017-10-09T08:35:14.041Z,11.48
2017-10-09T08:37:40.986Z,16.45
2017-10-09T08:40:07.128Z,15.82
2017-10-09T08:42:33.249Z,14.98
2017-10-09T08:44:59.494Z,17.67
2017-10-09T08:47:25.640Z,20.45
2017-10-09T08:49:51.906Z,11.38
2017-10-09T08:52:18.033Z,11.60
2017-10-09T08:54:44.182Z,16.45
2017-10-09T08:57:11.074Z,12.57
2017-10-09T08:59:37.961Z,15.07
2017-10-09T09:02:04.817Z,17.17
2017-10-09T09:04:32.854Z,15.23
2017-10-09T09:06:58.998Z,15.70
2017-10-09T09:09:25.147Z,12.20
2017-10-09T09:11:51.286Z,15.65
2017-10-09T09:14:17.405Z,9.77
2017-10-09T09:16:44.275Z,12.93
2017-10-09T09:19:10.414Z,17.67
2017-10-09T09:21:36.525Z,12.63
2017-10-09T09:24:09.166Z,17.25
2017-10-09T09:26:36.198Z,20.23
2017-10-09T09:29:02.351Z,13.23
2017-10-09T09:31:29.517Z,10.70
2017-10-09T09:33:55.696Z,12.50
2017-10-09T09:36:21.821Z,16.23
2017-10-09T09:38:47.948Z,10.25
2017-10-09T09:41:17.516Z,9.05
2017-10-09T09:43:43.637Z,11.12
2017-10-09T09:46:10.690Z,6.95
2017-10-09T09:48:36.873Z,11.32
2017-10-09T09:51:03.033Z,10.75
2017-10-09T09:53:29.161Z,12.05
2017-10-09T09:55:55.274Z,9.07
2017-10-09T09:58:25.069Z,11.45
2017-10-09T10:00:51.191Z,14.23
2017-10-09T10:03:18.122Z,13.35
2017-10-09T10:05:44.262Z,15.52
2017-10-09T10:08:10.425Z,14.30
2017-10-09T10:10:36.546Z,17.00
2017-10-09T10:13:02.643Z,15.07
2017-10-09T10:15:28.752Z,14.27
2017-10-09T10:17:58.503Z,14.15
2017-10-09T10:20:24.938Z,14.00
2017-10-09T10:22:51.034Z,21.30
2017-10-09T10:25:17.163Z,17.95
2017-10-09T10:27:43.293Z,15.80
2017-10-09T10:30:09.413Z,16.27
2017-10-09T10:32:35.637Z,11.35
2017-10-09T10:35:01.793Z,11.30
2017-10-09T10:37:29.712Z,13.20
2017-10-09T10:39:55.819Z,14.15
2017-10-09T10:42:22.673Z,12.10
2017-10-09T10:44:48.803Z,15.82
2017-10-09T10:47:14.908Z,14.80
2017-10-09T10:49:41.033Z,16.67
2017-10-09T10:52:07.198Z,13.38
2017-10-09T10:54:33.322Z,11.98
2017-10-09T10:57:01.015Z,15.45
2017-10-09T10:59:27.228Z,16.48
2017-10-09T11:01:53.385Z,16.60
2017-10-09T11:04:19.750Z,17.27
2017-10-09T11:06:45.862Z,14.27
2017-10-09T11:09:11.953Z,13.23
2017-10-09T11:11:38.809Z,16.75
2017-10-09T11:14:07.125Z,21.67
2017-10-09T11:16:33.977Z,18.77
2017-10-09T11:21:56.845Z,13.65
2017-10-09T11:24:22.981Z,16.67
2017-10-09T11:26:49.108Z,14.63
2017-10-09T11:29:15.271Z,15.80
2017-10-09T11:31:41.397Z,20.37
2017-10-09T11:34:13.642Z,15.20
2017-10-09T11:36:39.960Z,19.67
2017-10-09T11:39:06.287Z,17.35
2017-10-09T11:41:32.610Z,17.25
2017-10-09T11:43:58.941Z,18.83
2017-10-09T11:46:25.296Z,21.02
2017-10-09T11:48:51.730Z,19.30
2017-10-09T11:51:18.944Z,15.83
2017-10-09T11:53:45.323Z,16.40
2017-10-09T11:56:11.741Z,21.50
2017-10-09T11:58:38.060Z,18.70
2017-10-09T12:01:04.441Z,19.00
2017-10-09T12:03:30.779Z,24.80
2017-10-09T12:05:57.870Z,23.00
2017-10-09T12:08:30.822Z,22.25
2017-10-09T12:10:57.223Z,19.47
2017-10-09T12:13:23.593Z,21.70
2017-10-09T12:15:50.456Z,25.62
2017-10-09T12:18:17.488Z,20.63
2017-10-09T12:20:44.546Z,23.17
2017-10-09T12:23:10.863Z,21.10
2017-10-09T12:25:38.768Z,27.00
2017-10-09T12:28:05.117Z,24.60
2017-10-09T12:30:32.187Z,25.83
2017-10-09T12:32:59.300Z,28.27
2017-10-09T12:35:25.625Z,21.30
2017-10-09T12:37:51.932Z,22.40
2017-10-09T12:40:18.429Z,29.70
2017-10-09T12:42:44.766Z,28.90
2017-10-09T12:45:14.115Z,23.60
2017-10-09T12:47:40.454Z,25.33
2017-10-09T12:50:06.779Z,25.60
2017-10-09T12:52:33.161Z,26.20
2017-10-09T12:55:00.238Z,21.83
2017-10-09T12:57:26.655Z,26.10
2017-10-09T12:59:53.027Z,25.13
2017-10-09T13:02:23.001Z,24.90
2017-10-09T13:04:49.316Z,26.73
2017-10-09T13:07:15.641Z,28.43
2017-10-09T13:09:42.029Z,24.43
2017-10-09T13:12:09.100Z,25.00
2017-10-09T13:14:36.206Z,27.70
2017-10-09T13:17:02.508Z,29.03
2017-10-09T13:19:32.519Z,27.80
2017-10-09T13:21:58.834Z,28.63
2017-10-09T13:24:25.229Z,24.93
2017-10-09T13:26:51.618Z,25.00
2017-10-09T13:29:17.928Z,24.33
2017-10-09T13:31:44.258Z,24.03
2017-10-09T13:36:42.665Z,25.20
2017-10-09T13:39:08.994Z,25.00
2017-10-09T13:41:35.339Z,24.30
2017-10-09T13:44:01.665Z,26.10
2017-10-09T13:46:28.001Z,29.40
2017-10-09T13:48:54.321Z,25.87
2017-10-09T13:51:24.055Z,23.27
2017-10-09T13:53:51.109Z,25.83
2017-10-09T13:56:17.429Z,30.80
2017-10-09T13:58:43.749Z,28.17
2017-10-09T14:01:10.086Z,28.40
2017-10-09T14:03:36.425Z,29.97
2017-10-09T14:06:03.488Z,26.90
2017-10-09T14:08:29.846Z,27.77
2017-10-09T14:10:58.588Z,23.93
2017-10-09T14:13:25.650Z,28.60
2017-10-09T14:15:52.150Z,27.13
2017-10-09T14:18:18.519Z,26.03
2017-10-09T14:20:46.174Z,24.47
2017-10-09T14:23:12.494Z,26.20
2017-10-09T14:25:43.098Z,33.30
2017-10-09T14:30:49.200Z,30.17
2017-10-09T14:40:35.957Z,26.13
2017-10-09T14:43:02.292Z,31.10
2017-10-09T14:45:28.778Z,32.70
2017-10-09T14:47:55.144Z,30.47
2017-10-09T14:50:21.515Z,31.37
2017-10-09T14:52:47.830Z,30.87
2017-10-09T14:55:14.917Z,34.93
2017-10-09T14:57:47.590Z,36.43
2017-10-09T15:00:13.964Z,29.17
2017-10-09T15:02:40.313Z,34.60
2017-10-09T15:05:06.639Z,31.10
2017-10-09T15:07:32.989Z,34.60
2017-10-09T15:10:00.066Z,32.27
2017-10-09T15:12:27.125Z,30.70
2017-10-09T15:14:57.798Z,33.33
2017-10-09T15:17:24.994Z,39.43
2017-10-09T15:19:51.327Z,34.63
2017-10-09T15:22:17.687Z,35.57
2017-10-09T15:24:44.057Z,34.60
2017-10-09T15:27:10.413Z,33.40
2017-10-09T15:29:36.754Z,31.67
2017-10-09T15:32:03.082Z,28.90
2017-10-09T15:34:29.485Z,31.40
2017-10-09T15:36:56.018Z,31.07
2017-10-09T15:39:22.511Z,29.57
2017-10-09T15:41:48.827Z,28.53
2017-10-09T15:44:15.165Z,29.00
2017-10-09T15:46:41.493Z,29.77
2017-10-09T15:49:08.739Z,28.20
2017-10-09T15:51:35.069Z,32.83
2017-10-09T15:54:01.387Z,29.00
2017-10-09T15:56:27.714Z,26.87
2017-10-09T15:58:54.777Z,25.30
2017-10-09T16:01:21.197Z,29.53
2017-10-09T16:03:47.563Z,25.77
2017-10-09T16:06:13.894Z,29.40
2017-10-09T16:08:40.291Z,29.43
2017-10-09T16:11:06.642Z,30.60
2017-10-09T16:13:33.763Z,29.87
2017-10-09T16:16:00.181Z,28.27
2017-10-09T16:18:26.591Z,33.07
2017-10-09T16:20:52.941Z,29.90
2017-10-09T16:23:19.385Z,29.70
2017-10-09T16:25:45.746Z,26.63
2017-10-09T16:28:13.418Z,29.73
2017-10-09T16:30:40.754Z,26.90
2017-10-09T16:33:10.022Z,30.20
2017-10-09T16:35:37.172Z,29.60
2017-10-09T16:38:03.527Z,30.47
2017-10-09T16:40:29.863Z,30.03
2017-10-09T16:42:56.413Z,29.13
2017-10-09T16:48:10.729Z,29.53
2017-10-09T16:50:37.650Z,28.97
2017-10-09T16:53:03.774Z,34.23
2017-10-09T16:55:30.670Z,29.60
2017-10-09T16:58:01.434Z,32.20
2017-10-09T17:00:27.834Z,28.90
2017-10-09T17:02:54.005Z,28.60
2017-10-09T17:05:20.148Z,39.83
2017-10-09T17:07:46.318Z,28.30
2017-10-09T17:10:12.531Z,29.60
2017-10-09T17:12:39.454Z,31.17
2017-10-09T17:15:05.599Z,31.90
2017-10-09T17:17:31.777Z,32.20
2017-10-09T17:19:59.007Z,28.93
2017-10-09T17:22:25.938Z,29.90
2017-10-09T17:24:52.145Z,34.40
2017-10-09T17:27:18.350Z,32.07
2017-10-09T17:29:44.503Z,31.73
2017-10-09T17:32:11.462Z,34.60
2017-10-09T17:37:17.073Z,28.30
2017-10-09T17:39:43.206Z,29.97
2017-10-09T17:42:09.349Z,34.10
2017-10-09T17:44:35.549Z,28.90
2017-10-09T17:47:01.702Z,28.80
2017-10-09T17:49:27.923Z,31.60
2017-10-09T17:51:54.154Z,29.37
2017-10-09T17:54:23.962Z,26.83
2017-10-09T17:56:50.135Z,28.43
2017-10-09T17:59:17.053Z,29.23
2017-10-09T18:01:43.193Z,30.70
2017-10-09T18:04:09.321Z,30.03
2017-10-09T18:06:36.201Z,31.23
2017-10-09T18:09:02.343Z,29.60
2017-10-09T18:11:33.565Z,27.10
2017-10-09T18:13:59.907Z,35.93
2017-10-09T18:16:26.055Z,28.13
2017-10-09T18:18:52.221Z,30.53
2017-10-09T18:21:19.106Z,28.23
2017-10-09T18:23:45.272Z,29.00
2017-10-09T18:26:11.429Z,26.23
2017-10-09T18:28:39.565Z,27.60
2017-10-09T18:31:06.440Z,25.37
2017-10-09T18:33:33.312Z,24.30
2017-10-09T18:36:00.183Z,25.50
2017-10-09T18:38:26.313Z,20.60
2017-10-09T18:40:52.443Z,28.07
2017-10-09T18:43:24.797Z,21.43
2017-10-09T18:45:50.959Z,28.30
2017-10-09T18:48:17.084Z,28.53
2017-10-09T18:50:43.257Z,26.53
2017-10-09T18:53:09.437Z,30.50
2017-10-09T18:55:35.655Z,27.02
2017-10-09T18:58:01.842Z,26.10
2017-10-09T19:00:35.064Z,24.47
2017-10-09T19:03:01.952Z,22.87
2017-10-09T19:05:28.132Z,20.60
2017-10-09T19:07:55.099Z,20.23
2017-10-09T19:10:21.411Z,16.50
2017-10-09T19:12:47.622Z,22.70
2017-10-09T19:15:13.784Z,18.10
2017-10-09T19:17:39.917Z,16.67
2017-10-09T19:20:06.086Z,17.97
2017-10-09T19:22:32.241Z,17.70
2017-10-09T19:24:58.397Z,20.88
2017-10-09T19:27:24.616Z,17.93
2017-10-09T19:29:50.758Z,20.93
2017-10-09T19:32:16.883Z,19.97
2017-10-09T19:34:43.122Z,19.33
2017-10-09T19:39:42.107Z,22.17
2017-10-09T19:42:08.970Z,20.03
2017-10-09T19:44:35.852Z,16.20
2017-10-09T19:47:02.031Z,15.03
2017-10-09T19:49:28.192Z,21.37
2017-10-09T19:51:54.413Z,16.23
2017-10-09T19:54:20.554Z,17.13
2017-10-09T19:56:46.771Z,15.97
2017-10-09T19:59:12.929Z,14.10
2017-10-09T20:01:40.064Z,15.47
2017-10-09T20:04:06.534Z,18.80
2017-10-09T20:06:33.418Z,18.57
2017-10-09T20:08:59.787Z,15.85
2017-10-09T20:11:25.930Z,16.73
2017-10-09T20:13:52.071Z,19.43
2017-10-09T20:16:18.318Z,18.50
2017-10-09T20:18:45.271Z,18.27
2017-10-09T20:21:11.394Z,20.43
2017-10-09T20:23:38.288Z,21.67
2017-10-09T20:26:04.623Z,20.80
2017-10-09T20:28:30.739Z,18.57
2017-10-09T20:30:57.638Z,25.55
2017-10-09T20:33:24.109Z,19.00
2017-10-09T20:35:50.254Z,18.20
2017-10-09T20:38:16.458Z,24.55
2017-10-09T20:40:42.929Z,20.77
2017-10-09T20:43:09.182Z,20.20
2017-10-09T20:45:35.405Z,18.45
2017-10-09T20:48:01.645Z,22.93
2017-10-09T20:50:27.890Z,23.73
2017-10-09T20:52:54.097Z,23.53
2017-10-09T20:55:21.038Z,22.90
2017-10-09T20:57:47.188Z,24.33
2017-10-09T21:00:13.339Z,22.20
2017-10-09T21:02:39.530Z,21.90
2017-10-09T21:05:05.718Z,23.00
2017-10-09T21:07:31.901Z,28.12
2017-10-09T21:09:58.781Z,25.42
2017-10-09T21:12:24.932Z,26.62
2017-10-09T21:14:53.711Z,29.58
2017-10-09T21:17:20.593Z,25.57
2017-10-09T21:19:46.726Z,26.80
2017-10-09T21:22:12.863Z,26.45
2017-10-09T21:24:39.010Z,31.15
2017-10-09T21:27:05.974Z,29.85
2017-10-09T21:29:32.839Z,30.20
2017-10-09T21:31:59.801Z,29.70
2017-10-09T21:34:25.997Z,29.40
2017-10-09T21:36:52.131Z,24.52
2017-10-09T21:39:18.270Z,29.98
2017-10-09T21:41:44.459Z,27.35
2017-10-09T21:44:10.941Z,27.23
2017-10-09T21:46:37.875Z,26.95
2017-10-09T21:49:03.988Z,29.00
2017-10-09T21:51:30.172Z,28.93
2017-10-09T21:53:57.058Z,25.12
2017-10-09T21:56:24.010Z,28.08
2017-10-09T21:58:50.925Z,28.27
2017-10-09T22:01:17.117Z,28.15
2017-10-09T22:03:43.246Z,26.60
2017-10-09T22:06:09.424Z,28.02
2017-10-09T22:08:39.041Z,23.17
2017-10-09T22:11:05.202Z,28.15
2017-10-09T22:13:31.366Z,33.35
2017-10-09T22:15:58.276Z,31.87
2017-10-09T22:18:24.607Z,28.95
2017-10-09T22:20:50.793Z,27.30
2017-10-09T22:23:17.053Z,33.30
2017-10-09T22:25:43.327Z,28.60
2017-10-09T22:28:09.526Z,28.40
2017-10-09T22:33:06.908Z,28.55
2017-10-09T22:35:33.122Z,24.63
2017-10-09T22:37:59.260Z,28.00
2017-10-09T22:40:25.423Z,26.00
2017-10-09T22:42:51.569Z,27.83
2017-10-09T22:45:19.651Z,27.03
2017-10-09T22:47:45.784Z,27.43
2017-10-09T22:50:12.350Z,32.97
2017-10-09T22:52:38.522Z,29.35
2017-10-09T22:55:05.553Z,34.33
2017-10-09T22:57:31.676Z,27.73
2017-10-09T22:59:57.803Z,29.50
2017-10-09T23:02:23.945Z,33.60
2017-10-09T23:04:50.107Z,32.17
2017-10-09T23:07:16.294Z,29.57
2017-10-09T23:09:43.163Z,29.97
2017-10-09T23:12:10.019Z,30.90
2017-10-09T23:14:36.975Z,34.00
2017-10-09T23:17:04.986Z,29.43
2017-10-09T23:19:31.341Z,33.17
2017-10-09T23:21:57.857Z,26.53
2017-10-09T23:24:24.038Z,31.23
2017-10-09T23:26:50.165Z,31.30
2017-10-09T23:29:16.372Z,33.60
2017-10-09T23:31:43.296Z,32.03
2017-10-09T23:34:09.454Z,31.10
2017-10-09T23:36:35.628Z,38.45
2017-10-09T23:39:01.822Z,36.67
2017-10-09T23:41:27.973Z,32.23
2017-10-09T23:43:54.113Z,37.03
2017-10-09T23:46:20.285Z,33.03
2017-10-09T23:48:46.453Z,35.58
2017-10-09T23:51:14.236Z,35.40
2017-10-09T23:53:40.437Z,33.78
2017-10-09T23:56:06.615Z,37.50
2017-10-09T23:58:32.743Z,36.13
